Overview Statistics Trail Chart Weather Telemetry Raw packets
 

This is the latest recevied weather packets stored in our database for station/object HS5XHC-1. If no packets are shown the sender has not sent any weather packets the latest 10 day(s).

<< 50 51 52 53 54 55 56 >>
Time Temp. Humidity Pressure Rain* Wind** Luminosity Snow
1777077859 31.11° C 47% 969 hPa - - 0 W/m² -
1777077236 31.11° C 46% 969 hPa - - 0 W/m² -
1777076612 31.11° C 46% 969 hPa - - 0 W/m² -
1777075988 30.56° C 48% 968 hPa - - 0 W/m² -
1777075364 31.11° C 47% 968 hPa - - 0 W/m² -
1777074739 31.11° C 48% 968 hPa - - 0 W/m² -
1777074115 31.11° C 47% 968 hPa - - 0 W/m² -
1777073491 31.11° C 47% 968 hPa - - 0 W/m² -
1777072868 31.11° C 47% 968 hPa - - 0 W/m² -
1777072244 30.56° C 47% 967 hPa - - 0 W/m² -
1777071620 31.11° C 46% 967 hPa - - 0 W/m² -
1777070996 31.11° C 46% 967 hPa - - 0 W/m² -
1777070372 31.11° C 46% 967 hPa - - 0 W/m² -
1777069748 31.11° C 45% 967 hPa - - 0 W/m² -
1777069124 31.11° C 44% 966 hPa - - 0 W/m² -
1777068500 31.67° C 44% 966 hPa - - 0 W/m² -
1777067876 31.11° C 44% 966 hPa - - 0 W/m² -
1777067252 31.11° C 44% 966 hPa - - 0 W/m² -
1777066628 32.22° C 42% 966 hPa - - 0 W/m² -
1777066004 31.67° C 43% 966 hPa - - 0 W/m² -
1777065380 31.67° C 42% 966 hPa - - 0 W/m² -
1777064756 31.67° C 43% 965 hPa - - 0 W/m² -
1777064132 31.11° C 44% 965 hPa - - 0 W/m² -
1777063508 32.22° C 41% 965 hPa - - 0 W/m² -
1777062884 31.11° C 43% 965 hPa - - 0 W/m² -

* Rain since midnight (hover to see other rain measurements)
** Current wind speed in m/s (hover to see current wind gust speed)